sensor_id;sensor_type;location;lat;lon;timestamp;pressure;altitude;pressure_sealevel;temperature;humidity
41044;BME280;51680;49.806;18.774;2023-04-25T00:01:43;96364.06;;;14.03;77.65
41044;BME280;51680;49.806;18.774;2023-04-25T00:04:46;96363.78;;;13.96;78.23
41044;BME280;51680;49.806;18.774;2023-04-25T00:07:49;96360.44;;;13.77;78.99
41044;BME280;51680;49.806;18.774;2023-04-25T00:10:51;96359.06;;;13.63;79.63
41044;BME280;51680;49.806;18.774;2023-04-25T00:13:53;96360.03;;;13.62;79.24
41044;BME280;51680;49.806;18.774;2023-04-25T00:16:55;96360.19;;;13.61;78.97
41044;BME280;51680;49.806;18.774;2023-04-25T00:19:58;96354.53;;;13.65;78.94
41044;BME280;51680;49.806;18.774;2023-04-25T00:23:00;96360.56;;;13.66;78.58
41044;BME280;51680;49.806;18.774;2023-04-25T00:26:02;96349.09;;;13.76;78.37
41044;BME280;51680;49.806;18.774;2023-04-25T00:29:04;96359.84;;;13.83;77.95
41044;BME280;51680;49.806;18.774;2023-04-25T00:32:06;96362.03;;;13.87;78.01
41044;BME280;51680;49.806;18.774;2023-04-25T00:35:10;96366.16;;;13.90;78.05
41044;BME280;51680;49.806;18.774;2023-04-25T00:38:11;96366.16;;;13.90;77.98
41044;BME280;51680;49.806;18.774;2023-04-25T00:41:13;96368.25;;;13.86;77.98
41044;BME280;51680;49.806;18.774;2023-04-25T00:44:16;96366.59;;;13.85;78.03
41044;BME280;51680;49.806;18.774;2023-04-25T00:47:19;96369.09;;;13.87;77.87
41044;BME280;51680;49.806;18.774;2023-04-25T00:50:22;96384.69;;;13.88;77.86
41044;BME280;51680;49.806;18.774;2023-04-25T00:53:25;96379.44;;;13.88;77.79
41044;BME280;51680;49.806;18.774;2023-04-25T00:56:28;96380.00;;;13.82;78.04
41044;BME280;51680;49.806;18.774;2023-04-25T00:59:30;96381.09;;;13.80;77.97
41044;BME280;51680;49.806;18.774;2023-04-25T01:02:32;96385.25;;;13.82;78.21
41044;BME280;51680;49.806;18.774;2023-04-25T01:05:35;96384.56;;;13.80;78.44
41044;BME280;51680;49.806;18.774;2023-04-25T01:08:37;96386.22;;;13.81;78.39
41044;BME280;51680;49.806;18.774;2023-04-25T01:11:39;96383.88;;;13.78;78.18
41044;BME280;51680;49.806;18.774;2023-04-25T01:14:41;96386.78;;;13.75;78.25
41044;BME280;51680;49.806;18.774;2023-04-25T01:17:43;96387.06;;;13.72;78.33
41044;BME280;51680;49.806;18.774;2023-04-25T01:20:47;96387.06;;;13.72;78.47
41044;BME280;51680;49.806;18.774;2023-04-25T01:23:53;96391.91;;;13.67;78.57
41044;BME280;51680;49.806;18.774;2023-04-25T01:26:55;96394.00;;;13.64;78.64
41044;BME280;51680;49.806;18.774;2023-04-25T01:29:59;96394.44;;;13.59;78.31
41044;BME280;51680;49.806;18.774;2023-04-25T01:33:03;96390.13;;;13.58;78.49
41044;BME280;51680;49.806;18.774;2023-04-25T01:36:06;96389.59;;;13.55;77.99
41044;BME280;51680;49.806;18.774;2023-04-25T01:39:10;96395.53;;;13.47;78.09
41044;BME280;51680;49.806;18.774;2023-04-25T01:42:12;96394.59;;;13.39;78.21
41044;BME280;51680;49.806;18.774;2023-04-25T01:45:14;96397.47;;;13.36;78.22
41044;BME280;51680;49.806;18.774;2023-04-25T01:48:16;96413.34;;;13.34;77.76
41044;BME280;51680;49.806;18.774;2023-04-25T01:51:18;96416.25;;;13.31;78.11
41044;BME280;51680;49.806;18.774;2023-04-25T01:54:22;96406.88;;;13.29;78.09
41044;BME280;51680;49.806;18.774;2023-04-25T01:57:24;96409.22;;;13.22;77.52
41044;BME280;51680;49.806;18.774;2023-04-25T02:00:25;96411.97;;;13.21;77.49
41044;BME280;51680;49.806;18.774;2023-04-25T02:03:27;96412.66;;;13.23;77.70
41044;BME280;51680;49.806;18.774;2023-04-25T02:06:31;96411.44;;;13.17;77.85
41044;BME280;51680;49.806;18.774;2023-04-25T02:09:34;96415.28;;;13.13;77.40
41044;BME280;51680;49.806;18.774;2023-04-25T02:12:40;96413.91;;;13.09;77.38
41044;BME280;51680;49.806;18.774;2023-04-25T02:15:53;96421.59;;;13.01;76.87
41044;BME280;51680;49.806;18.774;2023-04-25T02:18:55;96422.56;;;13.00;77.07
41044;BME280;51680;49.806;18.774;2023-04-25T02:21:57;96425.47;;;12.97;76.80
41044;BME280;51680;49.806;18.774;2023-04-25T02:25:01;96416.88;;;12.95;76.69
41044;BME280;51680;49.806;18.774;2023-04-25T02:28:03;96426.94;;;12.90;77.12
41044;BME280;51680;49.806;18.774;2023-04-25T02:31:05;96417.28;;;12.81;76.57
41044;BME280;51680;49.806;18.774;2023-04-25T02:34:06;96426.34;;;12.77;76.42
41044;BME280;51680;49.806;18.774;2023-04-25T02:37:11;96422.09;;;12.67;76.12
41044;BME280;51680;49.806;18.774;2023-04-25T02:40:14;96427.03;;;12.60;76.04
41044;BME280;51680;49.806;18.774;2023-04-25T02:43:16;96428.25;;;12.56;76.43
41044;BME280;51680;49.806;18.774;2023-04-25T02:46:18;96423.00;;;12.56;76.25
41044;BME280;51680;49.806;18.774;2023-04-25T02:49:20;96431.13;;;12.53;76.05
41044;BME280;51680;49.806;18.774;2023-04-25T02:52:22;96435.00;;;12.49;76.31
41044;BME280;51680;49.806;18.774;2023-04-25T02:55:34;96435.00;;;12.49;76.57
41044;BME280;51680;49.806;18.774;2023-04-25T02:58:37;96430.81;;;12.47;76.05
41044;BME280;51680;49.806;18.774;2023-04-25T03:01:39;96427.78;;;12.42;76.28
41044;BME280;51680;49.806;18.774;2023-04-25T03:04:41;96430.28;;;12.43;76.11
41044;BME280;51680;49.806;18.774;2023-04-25T03:07:43;96424.06;;;12.44;76.50
41044;BME280;51680;49.806;18.774;2023-04-25T03:10:47;96426.13;;;12.41;76.02
41044;BME280;51680;49.806;18.774;2023-04-25T03:13:50;96420.91;;;12.41;76.08
41044;BME280;51680;49.806;18.774;2023-04-25T03:16:53;96428.19;;;12.37;76.48
41044;BME280;51680;49.806;18.774;2023-04-25T03:19:57;96429.41;;;12.33;76.35
41044;BME280;51680;49.806;18.774;2023-04-25T03:22:59;96433.25;;;12.29;76.97
41044;BME280;51680;49.806;18.774;2023-04-25T03:26:04;96430.50;;;12.31;76.01
41044;BME280;51680;49.806;18.774;2023-04-25T03:29:06;96432.03;;;12.33;75.82
41044;BME280;51680;49.806;18.774;2023-04-25T03:32:09;96434.38;;;12.36;75.98
41044;BME280;51680;49.806;18.774;2023-04-25T03:35:11;96438.53;;;12.39;75.30
41044;BME280;51680;49.806;18.774;2023-04-25T03:38:13;96428.88;;;12.39;75.68
41044;BME280;51680;49.806;18.774;2023-04-25T03:41:16;96428.75;;;12.41;75.18
41044;BME280;51680;49.806;18.774;2023-04-25T03:44:26;96427.94;;;12.40;75.30
41044;BME280;51680;49.806;18.774;2023-04-25T03:47:27;96434.09;;;12.39;75.05
41044;BME280;51680;49.806;18.774;2023-04-25T03:50:30;96434.38;;;12.36;75.51
41044;BME280;51680;49.806;18.774;2023-04-25T03:53:31;96437.25;;;12.33;74.96
41044;BME280;51680;49.806;18.774;2023-04-25T03:57:04;96432.44;;;12.29;75.23
41044;BME280;51680;49.806;18.774;2023-04-25T04:00:09;96439.06;;;12.33;75.20
41044;BME280;51680;49.806;18.774;2023-04-25T04:03:14;96445.81;;;12.35;75.41
41044;BME280;51680;49.806;18.774;2023-04-25T04:06:16;96446.50;;;12.37;75.27
41044;BME280;51680;49.806;18.774;2023-04-25T04:09:23;96449.13;;;12.37;75.03
41044;BME280;51680;49.806;18.774;2023-04-25T04:12:27;96449.81;;;12.39;74.83
41044;BME280;51680;49.806;18.774;2023-04-25T04:15:29;96451.22;;;12.43;74.74
41044;BME280;51680;49.806;18.774;2023-04-25T04:18:33;96458.47;;;12.30;77.13
41044;BME280;51680;49.806;18.774;2023-04-25T04:21:37;96448.44;;;12.35;75.35
41044;BME280;51680;49.806;18.774;2023-04-25T04:24:39;96458.06;;;12.35;75.03
41044;BME280;51680;49.806;18.774;2023-04-25T04:27:46;96451.63;;;12.39;74.89
41044;BME280;51680;49.806;18.774;2023-04-25T04:30:58;96464.00;;;12.37;75.31
41044;BME280;51680;49.806;18.774;2023-04-25T04:34:01;96466.09;;;12.43;74.95
41044;BME280;51680;49.806;18.774;2023-04-25T04:37:04;96461.69;;;12.43;74.92
41044;BME280;51680;49.806;18.774;2023-04-25T04:40:09;96460.72;;;12.44;74.76
41044;BME280;51680;49.806;18.774;2023-04-25T04:43:25;96462.09;;;12.48;74.60
41044;BME280;51680;49.806;18.774;2023-04-25T04:46:40;96463.06;;;12.47;74.76
41044;BME280;51680;49.806;18.774;2023-04-25T04:49:49;96457.16;;;12.45;75.33
41044;BME280;51680;49.806;18.774;2023-04-25T04:53:04;96462.53;;;12.44;74.65
41044;BME280;51680;49.806;18.774;2023-04-25T04:56:17;96463.06;;;12.47;74.49
41044;BME280;51680;49.806;18.774;2023-04-25T04:59:49;96458.28;;;12.52;73.87
41044;BME280;51680;49.806;18.774;2023-04-25T05:03:12;96456.38;;;12.54;73.76
41044;BME280;51680;49.806;18.774;2023-04-25T05:06:36;96460.66;;;12.65;73.76
41044;BME280;51680;49.806;18.774;2023-04-25T05:09:50;96454.63;;;12.74;73.74
41044;BME280;51680;49.806;18.774;2023-04-25T05:13:14;96453.69;;;12.84;72.95
41044;BME280;51680;49.806;18.774;2023-04-25T05:16:40;96458.13;;;12.93;73.35
41044;BME280;51680;49.806;18.774;2023-04-25T05:19:52;96459.97;;;13.02;73.31
41044;BME280;51680;49.806;18.774;2023-04-25T05:23:29;96457.75;;;13.07;73.02
41044;BME280;51680;49.806;18.774;2023-04-25T05:26:49;96454.03;;;13.10;72.44
41044;BME280;51680;49.806;18.774;2023-04-25T05:30:10;96457.38;;;13.21;73.05
41044;BME280;51680;49.806;18.774;2023-04-25T05:33:34;96459.13;;;13.30;73.02
41044;BME280;51680;49.806;18.774;2023-04-25T05:36:36;96462.63;;;13.40;72.70
41044;BME280;51680;49.806;18.774;2023-04-25T05:39:37;96461.09;;;13.47;72.80
41044;BME280;51680;49.806;18.774;2023-04-25T05:42:45;96458.59;;;13.55;72.42
41044;BME280;51680;49.806;18.774;2023-04-25T05:46:05;96464.53;;;13.57;72.49
41044;BME280;51680;49.806;18.774;2023-04-25T05:49:40;96459.69;;;13.62;72.01
41044;BME280;51680;49.806;18.774;2023-04-25T05:53:06;96464.94;;;13.62;72.08
41044;BME280;51680;49.806;18.774;2023-04-25T05:56:14;96462.19;;;13.64;71.27
41044;BME280;51680;49.806;18.774;2023-04-25T05:59:16;96464.94;;;13.62;71.08
41044;BME280;51680;49.806;18.774;2023-04-25T06:02:19;96470.72;;;13.66;71.52
41044;BME280;51680;49.806;18.774;2023-04-25T06:05:24;96473.63;;;13.72;71.38
41044;BME280;51680;49.806;18.774;2023-04-25T06:08:26;96474.47;;;13.73;71.36
41044;BME280;51680;49.806;18.774;2023-04-25T06:11:28;96476.78;;;13.76;71.12
41044;BME280;51680;49.806;18.774;2023-04-25T06:14:30;96482.19;;;13.74;71.19
41044;BME280;51680;49.806;18.774;2023-04-25T06:17:32;96479.00;;;13.71;71.35
41044;BME280;51680;49.806;18.774;2023-04-25T06:20:36;96476.25;;;13.72;70.90
41044;BME280;51680;49.806;18.774;2023-04-25T06:23:38;96480.38;;;13.75;71.02
41044;BME280;51680;49.806;18.774;2023-04-25T06:26:42;96478.16;;;13.80;70.29
41044;BME280;51680;49.806;18.774;2023-04-25T06:29:44;96485.19;;;13.89;70.57
41044;BME280;51680;49.806;18.774;2023-04-25T06:32:46;96472.63;;;13.92;70.59
41044;BME280;51680;49.806;18.774;2023-04-25T06:35:49;96481.47;;;13.91;70.71
41044;BME280;51680;49.806;18.774;2023-04-25T06:38:56;96482.56;;;13.98;70.39
41044;BME280;51680;49.806;18.774;2023-04-25T06:41:58;96475.66;;;14.07;70.01
41044;BME280;51680;49.806;18.774;2023-04-25T06:45:26;96478.66;;;14.12;69.86
41044;BME280;51680;49.806;18.774;2023-04-25T06:48:28;96465.41;;;14.23;69.62
41044;BME280;51680;49.806;18.774;2023-04-25T06:51:31;96468.69;;;14.34;68.87
41044;BME280;51680;49.806;18.774;2023-04-25T06:54:33;96466.97;;;14.43;69.15
41044;BME280;51680;49.806;18.774;2023-04-25T06:57:43;96475.50;;;14.54;68.71
41044;BME280;51680;49.806;18.774;2023-04-25T07:01:05;96461.44;;;14.55;67.67
41044;BME280;51680;49.806;18.774;2023-04-25T07:04:07;96469.97;;;14.57;67.70
41044;BME280;51680;49.806;18.774;2023-04-25T07:07:14;96464.72;;;14.57;66.59
41044;BME280;51680;49.806;18.774;2023-04-25T07:10:26;96466.91;;;14.62;66.62
41044;BME280;51680;49.806;18.774;2023-04-25T07:13:28;96467.53;;;14.73;66.68
41044;BME280;51680;49.806;18.774;2023-04-25T07:16:30;96460.53;;;14.91;66.01
41044;BME280;51680;49.806;18.774;2023-04-25T07:19:33;96461.03;;;15.04;64.98
41044;BME280;51680;49.806;18.774;2023-04-25T07:22:37;96454.50;;;15.08;64.26
41044;BME280;51680;49.806;18.774;2023-04-25T07:25:40;96460.94;;;15.14;64.23
41044;BME280;51680;49.806;18.774;2023-04-25T07:28:42;96459.69;;;15.18;64.50
41044;BME280;51680;49.806;18.774;2023-04-25T07:31:44;96459.16;;;15.14;64.05
41044;BME280;51680;49.806;18.774;2023-04-25T07:34:47;96463.34;;;15.07;63.12
41044;BME280;51680;49.806;18.774;2023-04-25T07:37:50;96463.72;;;15.12;63.03
41044;BME280;51680;49.806;18.774;2023-04-25T07:40:53;96464.88;;;15.27;62.70
41044;BME280;51680;49.806;18.774;2023-04-25T07:43:56;96455.91;;;15.47;62.06
41044;BME280;51680;49.806;18.774;2023-04-25T07:46:59;96447.38;;;15.71;61.65
41044;BME280;51680;49.806;18.774;2023-04-25T07:50:01;96448.66;;;15.84;60.84
41044;BME280;51680;49.806;18.774;2023-04-25T07:53:06;96456.03;;;16.06;60.23
41044;BME280;51680;49.806;18.774;2023-04-25T07:56:15;96443.28;;;16.19;59.77
41044;BME280;51680;49.806;18.774;2023-04-25T07:59:20;96440.09;;;16.33;58.86
41044;BME280;51680;49.806;18.774;2023-04-25T08:02:22;96436.59;;;16.33;58.44
41044;BME280;51680;49.806;18.774;2023-04-25T08:05:45;96437.69;;;16.22;57.88
41044;BME280;51680;49.806;18.774;2023-04-25T08:08:49;96446.91;;;16.18;58.83
41044;BME280;51680;49.806;18.774;2023-04-25T08:11:53;96443.59;;;16.16;58.32
41044;BME280;51680;49.806;18.774;2023-04-25T08:15:04;96443.00;;;16.30;57.37
41044;BME280;51680;49.806;18.774;2023-04-25T08:18:09;96436.59;;;16.33;56.95
41044;BME280;51680;49.806;18.774;2023-04-25T08:21:11;96428.84;;;16.31;56.45
41044;BME280;51680;49.806;18.774;2023-04-25T08:24:15;96434.47;;;16.36;56.70
41044;BME280;51680;49.806;18.774;2023-04-25T08:27:17;96431.16;;;16.52;55.40
41044;BME280;51680;49.806;18.774;2023-04-25T08:30:19;96434.22;;;16.81;56.78
41044;BME280;51680;49.806;18.774;2023-04-25T08:33:22;96429.84;;;16.97;55.31
41044;BME280;51680;49.806;18.774;2023-04-25T08:36:33;96429.84;;;16.97;54.64
41044;BME280;51680;49.806;18.774;2023-04-25T08:39:36;96429.53;;;17.00;53.84
41044;BME280;51680;49.806;18.774;2023-04-25T08:42:57;96430.84;;;17.12;53.00
41044;BME280;51680;49.806;18.774;2023-04-25T08:46:00;96431.53;;;17.22;52.47
41044;BME280;51680;49.806;18.774;2023-04-25T08:49:25;96431.25;;;17.33;53.11
41044;BME280;51680;49.806;18.774;2023-04-25T08:52:29;96439.50;;;17.38;52.88
41044;BME280;51680;49.806;18.774;2023-04-25T08:55:36;96431.59;;;17.46;52.31
41044;BME280;51680;49.806;18.774;2023-04-25T08:58:39;96437.38;;;17.58;52.26
41044;BME280;51680;49.806;18.774;2023-04-25T09:01:41;96430.47;;;17.65;51.51
41044;BME280;51680;49.806;18.774;2023-04-25T09:04:44;96426.84;;;17.74;51.52
41044;BME280;51680;49.806;18.774;2023-04-25T09:07:47;96432.28;;;17.80;51.56
41044;BME280;51680;49.806;18.774;2023-04-25T09:10:51;96432.59;;;18.01;51.09
41044;BME280;51680;49.806;18.774;2023-04-25T09:14:10;96427.97;;;18.11;49.29
41044;BME280;51680;49.806;18.774;2023-04-25T09:17:31;96426.78;;;18.38;50.84
41044;BME280;51680;49.806;18.774;2023-04-25T09:20:41;96426.88;;;18.61;49.61
41044;BME280;51680;49.806;18.774;2023-04-25T09:23:45;96431.44;;;18.75;48.06
41044;BME280;51680;49.806;18.774;2023-04-25T09:26:49;96421.88;;;18.74;46.66
41044;BME280;51680;49.806;18.774;2023-04-25T09:29:57;96419.91;;;18.68;45.49
41044;BME280;51680;49.806;18.774;2023-04-25T09:33:04;96429.56;;;18.53;46.33
41044;BME280;51680;49.806;18.774;2023-04-25T09:36:07;96422.59;;;18.60;47.03
41044;BME280;51680;49.806;18.774;2023-04-25T09:39:32;96423.94;;;18.48;47.02
41044;BME280;51680;49.806;18.774;2023-04-25T09:42:55;96431.22;;;18.38;48.10
41044;BME280;51680;49.806;18.774;2023-04-25T09:45:58;96426.59;;;18.23;47.61
41044;BME280;51680;49.806;18.774;2023-04-25T09:49:06;96430.91;;;18.16;47.40
41044;BME280;51680;49.806;18.774;2023-04-25T09:52:18;96434.88;;;18.12;48.81
41044;BME280;51680;49.806;18.774;2023-04-25T09:55:37;96430.97;;;18.00;47.66
41044;BME280;51680;49.806;18.774;2023-04-25T09:58:41;96439.56;;;17.86;47.91
41044;BME280;51680;49.806;18.774;2023-04-25T10:01:44;96436.06;;;17.78;48.52
41044;BME280;51680;49.806;18.774;2023-04-25T10:04:54;96437.53;;;17.56;48.27
41044;BME280;51680;49.806;18.774;2023-04-25T10:08:02;96435.22;;;17.37;48.61
41044;BME280;51680;49.806;18.774;2023-04-25T10:11:06;96438.47;;;17.23;49.59
41044;BME280;51680;49.806;18.774;2023-04-25T10:14:10;96434.81;;;17.16;49.43
41044;BME280;51680;49.806;18.774;2023-04-25T10:17:12;96435.50;;;17.18;49.67
41044;BME280;51680;49.806;18.774;2023-04-25T10:20:14;96428.22;;;17.12;49.37
41044;BME280;51680;49.806;18.774;2023-04-25T10:23:16;96430.69;;;17.14;48.75
41044;BME280;51680;49.806;18.774;2023-04-25T10:26:18;96431.53;;;17.14;48.26
41044;BME280;51680;49.806;18.774;2023-04-25T10:29:26;96427.91;;;17.15;46.33
41044;BME280;51680;49.806;18.774;2023-04-25T10:32:28;96432.81;;;17.02;47.92
41044;BME280;51680;49.806;18.774;2023-04-25T10:35:30;96425.59;;;17.04;48.32
41044;BME280;51680;49.806;18.774;2023-04-25T10:38:33;96432.50;;;17.05;48.82
41044;BME280;51680;49.806;18.774;2023-04-25T10:41:53;96421.47;;;17.02;47.10
41044;BME280;51680;49.806;18.774;2023-04-25T10:45:04;96424.22;;;16.92;47.01
41044;BME280;51680;49.806;18.774;2023-04-25T10:48:24;96421.88;;;16.89;46.52
41044;BME280;51680;49.806;18.774;2023-04-25T10:51:27;96419.94;;;16.91;47.89
41044;BME280;51680;49.806;18.774;2023-04-25T10:54:30;96412.00;;;16.83;46.34
41044;BME280;51680;49.806;18.774;2023-04-25T10:57:36;96424.06;;;16.94;47.82
41044;BME280;51680;49.806;18.774;2023-04-25T11:00:39;96416.50;;;16.99;48.32
41044;BME280;51680;49.806;18.774;2023-04-25T11:03:43;96429.84;;;16.97;47.99
41044;BME280;51680;49.806;18.774;2023-04-25T11:06:55;96419.28;;;16.97;47.55
41044;BME280;51680;49.806;18.774;2023-04-25T11:10:01;96417.34;;;16.99;48.52
41044;BME280;51680;49.806;18.774;2023-04-25T11:13:04;96421.59;;;17.08;48.23
41044;BME280;51680;49.806;18.774;2023-04-25T11:16:08;96424.13;;;17.18;48.08
41044;BME280;51680;49.806;18.774;2023-04-25T11:19:10;96431.88;;;17.27;48.49
41044;BME280;51680;49.806;18.774;2023-04-25T11:22:12;96424.63;;;17.29;47.88
41044;BME280;51680;49.806;18.774;2023-04-25T11:25:15;96423.34;;;17.33;47.88
41044;BME280;51680;49.806;18.774;2023-04-25T11:28:21;96427.78;;;17.33;47.59
41044;BME280;51680;49.806;18.774;2023-04-25T11:31:25;96428.09;;;17.30;48.50
41044;BME280;51680;49.806;18.774;2023-04-25T11:34:27;96432.22;;;17.24;48.09
41044;BME280;51680;49.806;18.774;2023-04-25T11:37:31;96431.03;;;17.19;47.34
41044;BME280;51680;49.806;18.774;2023-04-25T11:40:33;96426.38;;;17.05;46.91
41044;BME280;51680;49.806;18.774;2023-04-25T11:43:35;96422.22;;;16.86;46.48
41044;BME280;51680;49.806;18.774;2023-04-25T11:46:38;96429.09;;;16.79;47.14
41044;BME280;51680;49.806;18.774;2023-04-25T11:49:40;96432.09;;;16.76;47.20
41044;BME280;51680;49.806;18.774;2023-04-25T11:52:43;96418.38;;;16.65;46.43
41044;BME280;51680;49.806;18.774;2023-04-25T11:55:45;96422.50;;;16.67;46.49
41044;BME280;51680;49.806;18.774;2023-04-25T11:58:54;96412.41;;;16.63;45.45
41044;BME280;51680;49.806;18.774;2023-04-25T12:01:57;96420.84;;;16.66;45.80
41044;BME280;51680;49.806;18.774;2023-04-25T12:05:02;96424.44;;;16.65;46.01
41044;BME280;51680;49.806;18.774;2023-04-25T12:08:14;96424.13;;;16.68;44.69
41044;BME280;51680;49.806;18.774;2023-04-25T12:11:20;96429.56;;;16.67;45.55
41044;BME280;51680;49.806;18.774;2023-04-25T12:14:23;96425.28;;;16.66;45.49
41044;BME280;51680;49.806;18.774;2023-04-25T12:17:28;96420.16;;;16.56;45.62
41044;BME280;51680;49.806;18.774;2023-04-25T12:20:31;96418.47;;;16.55;45.81
41044;BME280;51680;49.806;18.774;2023-04-25T12:23:33;96414.84;;;16.48;45.66
41044;BME280;51680;49.806;18.774;2023-04-25T12:26:46;96417.38;;;16.32;44.17
41044;BME280;51680;49.806;18.774;2023-04-25T12:29:52;96419.44;;;16.21;45.83
41044;BME280;51680;49.806;18.774;2023-04-25T12:32:55;96422.22;;;16.19;46.79
41044;BME280;51680;49.806;18.774;2023-04-25T12:35:57;96420.59;;;16.18;46.28
41044;BME280;51680;49.806;18.774;2023-04-25T12:39:00;96416.31;;;16.25;46.49
41044;BME280;51680;49.806;18.774;2023-04-25T12:42:04;96416.03;;;16.28;46.96
41044;BME280;51680;49.806;18.774;2023-04-25T12:45:08;96414.25;;;16.37;47.39
41044;BME280;51680;49.806;18.774;2023-04-25T12:48:11;96418.09;;;16.42;46.18
41044;BME280;51680;49.806;18.774;2023-04-25T12:51:13;96416.81;;;16.54;46.59
41044;BME280;51680;49.806;18.774;2023-04-25T12:54:15;96418.03;;;16.68;46.22
41044;BME280;51680;49.806;18.774;2023-04-25T12:57:17;96410.00;;;16.77;45.65
41044;BME280;51680;49.806;18.774;2023-04-25T13:00:19;96407.38;;;16.77;45.89
41044;BME280;51680;49.806;18.774;2023-04-25T13:03:22;96409.38;;;16.91;45.75
41044;BME280;51680;49.806;18.774;2023-04-25T13:06:25;96416.34;;;17.08;45.71
41044;BME280;51680;49.806;18.774;2023-04-25T13:09:26;96407.78;;;17.22;45.10
41044;BME280;51680;49.806;18.774;2023-04-25T13:12:28;96414.41;;;17.26;44.35
41044;BME280;51680;49.806;18.774;2023-04-25T13:15:31;96410.13;;;17.33;44.51
41044;BME280;51680;49.806;18.774;2023-04-25T13:18:34;96405.22;;;17.46;44.31
41044;BME280;51680;49.806;18.774;2023-04-25T13:21:36;96398.31;;;17.61;45.17
41044;BME280;51680;49.806;18.774;2023-04-25T13:24:37;96400.09;;;17.85;44.77
41044;BME280;51680;49.806;18.774;2023-04-25T13:27:39;96403.03;;;18.06;44.51
41044;BME280;51680;49.806;18.774;2023-04-25T13:30:42;96402.50;;;18.18;44.07
41044;BME280;51680;49.806;18.774;2023-04-25T13:33:45;96406.50;;;18.14;43.89
41044;BME280;51680;49.806;18.774;2023-04-25T13:36:47;96404.81;;;18.13;44.09
41044;BME280;51680;49.806;18.774;2023-04-25T13:39:49;96409.47;;;18.11;43.96
41044;BME280;51680;49.806;18.774;2023-04-25T13:42:51;96407.47;;;18.13;44.17
41044;BME280;51680;49.806;18.774;2023-04-25T13:45:53;96405.81;;;18.20;44.06
41044;BME280;51680;49.806;18.774;2023-04-25T13:48:56;96404.13;;;18.27;43.53
41044;BME280;51680;49.806;18.774;2023-04-25T13:51:59;96406.44;;;18.30;42.80
41044;BME280;51680;49.806;18.774;2023-04-25T13:55:01;96406.13;;;18.25;43.21
41044;BME280;51680;49.806;18.774;2023-04-25T13:58:04;96410.75;;;18.31;43.48
41044;BME280;51680;49.806;18.774;2023-04-25T14:01:07;96404.63;;;18.39;43.88
41044;BME280;51680;49.806;18.774;2023-04-25T14:04:10;96406.97;;;18.34;43.24
41044;BME280;51680;49.806;18.774;2023-04-25T14:07:13;96412.75;;;18.21;43.14
41044;BME280;51680;49.806;18.774;2023-04-25T14:10:17;96415.06;;;18.08;42.97
41044;BME280;51680;49.806;18.774;2023-04-25T14:13:19;96416.25;;;18.06;43.40
41044;BME280;51680;49.806;18.774;2023-04-25T14:16:21;96418.22;;;18.12;43.68
41044;BME280;51680;49.806;18.774;2023-04-25T14:19:43;96415.59;;;18.04;43.25
41044;BME280;51680;49.806;18.774;2023-04-25T14:22:46;96404.53;;;18.00;43.46
41044;BME280;51680;49.806;18.774;2023-04-25T14:25:47;96408.34;;;17.98;43.78
41044;BME280;51680;49.806;18.774;2023-04-25T14:28:49;96409.81;;;18.00;43.78
41044;BME280;51680;49.806;18.774;2023-04-25T14:31:51;96408.50;;;17.96;44.22
41044;BME280;51680;49.806;18.774;2023-04-25T14:34:55;96405.72;;;17.98;43.38
41044;BME280;51680;49.806;18.774;2023-04-25T14:37:58;96400.09;;;17.77;43.64
41044;BME280;51680;49.806;18.774;2023-04-25T14:40:59;96388.25;;;17.65;44.26
41044;BME280;51680;49.806;18.774;2023-04-25T14:44:01;96406.38;;;17.60;44.78
41044;BME280;51680;49.806;18.774;2023-04-25T14:47:03;96407.72;;;17.64;44.61
41044;BME280;51680;49.806;18.774;2023-04-25T14:50:07;96411.50;;;17.61;44.67
41044;BME280;51680;49.806;18.774;2023-04-25T14:53:09;96404.25;;;17.63;45.21
41044;BME280;51680;49.806;18.774;2023-04-25T14:56:11;96407.84;;;17.70;44.48
41044;BME280;51680;49.806;18.774;2023-04-25T14:59:13;96412.09;;;17.15;44.11
41044;BME280;51680;49.806;18.774;2023-04-25T15:02:15;96408.31;;;16.68;44.86
41044;BME280;51680;49.806;18.774;2023-04-25T15:05:18;96412.91;;;16.58;44.80
41044;BME280;51680;49.806;18.774;2023-04-25T15:08:21;96414.19;;;16.54;45.25
41044;BME280;51680;49.806;18.774;2023-04-25T15:11:22;96422.38;;;16.43;45.18
41044;BME280;51680;49.806;18.774;2023-04-25T15:14:43;96420.06;;;16.40;45.91
41044;BME280;51680;49.806;18.774;2023-04-25T15:17:45;96421.16;;;16.38;46.66
41044;BME280;51680;49.806;18.774;2023-04-25T15:20:48;96420.88;;;16.41;46.13
41044;BME280;51680;49.806;18.774;2023-04-25T15:23:50;96424.38;;;16.24;46.51
41044;BME280;51680;49.806;18.774;2023-04-25T15:26:52;96425.50;;;16.21;46.44
41044;BME280;51680;49.806;18.774;2023-04-25T15:29:54;96427.13;;;16.14;46.69
41044;BME280;51680;49.806;18.774;2023-04-25T15:32:56;96427.06;;;16.06;46.94
41044;BME280;51680;49.806;18.774;2023-04-25T15:35:59;96436.59;;;15.99;47.25
41044;BME280;51680;49.806;18.774;2023-04-25T15:39:03;96437.53;;;15.98;47.45
41044;BME280;51680;49.806;18.774;2023-04-25T15:42:05;96445.13;;;16.01;47.25
41044;BME280;51680;49.806;18.774;2023-04-25T15:45:08;96445.97;;;16.02;47.58
41044;BME280;51680;49.806;18.774;2023-04-25T15:48:10;96439.88;;;16.01;47.74
41044;BME280;51680;49.806;18.774;2023-04-25T15:51:32;96439.03;;;16.01;48.03
41044;BME280;51680;49.806;18.774;2023-04-25T15:54:34;96443.78;;;15.97;48.38
41044;BME280;51680;49.806;18.774;2023-04-25T15:57:54;96446.56;;;15.96;48.80
41044;BME280;51680;49.806;18.774;2023-04-25T16:00:56;96447.56;;;15.95;48.96
41044;BME280;51680;49.806;18.774;2023-04-25T16:03:58;96444.41;;;15.91;49.53
41044;BME280;51680;49.806;18.774;2023-04-25T16:07:02;96451.81;;;15.88;51.29
41044;BME280;51680;49.806;18.774;2023-04-25T16:10:04;96457.44;;;15.58;52.56